sensor_id;sensor_type;location;lat;lon;timestamp;P1;durP1;ratioP1;P2;durP2;ratioP2
86522;SDS011;77164;48.402;10.596;2024-03-23T00:55:19;3.78;;;2.53;;
86522;SDS011;77164;48.402;10.596;2024-03-23T00:57:46;5.60;;;2.75;;
86522;SDS011;77164;48.402;10.596;2024-03-23T01:00:13;5.18;;;3.42;;
86522;SDS011;77164;48.402;10.596;2024-03-23T01:02:41;7.78;;;3.00;;
86522;SDS011;77164;48.402;10.596;2024-03-23T01:05:08;5.30;;;2.53;;
86522;SDS011;77164;48.402;10.596;2024-03-23T01:07:35;5.07;;;1.98;;
86522;SDS011;77164;48.402;10.596;2024-03-23T01:10:02;5.75;;;2.30;;
86522;SDS011;77164;48.402;10.596;2024-03-23T01:12:29;2.38;;;1.33;;
86522;SDS011;77164;48.402;10.596;2024-03-23T01:14:59;3.58;;;2.03;;
86522;SDS011;77164;48.402;10.596;2024-03-23T01:17:26;5.90;;;3.25;;
86522;SDS011;77164;48.402;10.596;2024-03-23T01:19:53;3.45;;;2.60;;
86522;SDS011;77164;48.402;10.596;2024-03-23T01:22:20;4.05;;;2.25;;
86522;SDS011;77164;48.402;10.596;2024-03-23T01:24:47;4.63;;;2.40;;
86522;SDS011;77164;48.402;10.596;2024-03-23T01:27:14;9.77;;;2.97;;
86522;SDS011;77164;48.402;10.596;2024-03-23T01:29:41;5.63;;;2.90;;
86522;SDS011;77164;48.402;10.596;2024-03-23T01:32:10;7.32;;;2.63;;
86522;SDS011;77164;48.402;10.596;2024-03-23T01:34:37;5.72;;;2.47;;
86522;SDS011;77164;48.402;10.596;2024-03-23T01:37:04;8.40;;;2.20;;
86522;SDS011;77164;48.402;10.596;2024-03-23T01:39:31;5.35;;;2.53;;
86522;SDS011;77164;48.402;10.596;2024-03-23T01:41:58;3.88;;;2.47;;
86522;SDS011;77164;48.402;10.596;2024-03-23T01:44:25;5.60;;;2.55;;
86522;SDS011;77164;48.402;10.596;2024-03-23T01:46:52;5.55;;;2.88;;
86522;SDS011;77164;48.402;10.596;2024-03-23T01:49:19;6.07;;;3.00;;
86522;SDS011;77164;48.402;10.596;2024-03-23T01:51:47;4.68;;;2.60;;
86522;SDS011;77164;48.402;10.596;2024-03-23T01:54:13;4.38;;;2.65;;
86522;SDS011;77164;48.402;10.596;2024-03-23T01:56:44;5.57;;;2.47;;
86522;SDS011;77164;48.402;10.596;2024-03-23T01:59:11;5.18;;;2.42;;
86522;SDS011;77164;48.402;10.596;2024-03-23T02:01:38;4.97;;;2.45;;
86522;SDS011;77164;48.402;10.596;2024-03-23T02:04:05;3.90;;;2.20;;
86522;SDS011;77164;48.402;10.596;2024-03-23T02:06:32;6.05;;;2.53;;
86522;SDS011;77164;48.402;10.596;2024-03-23T02:08:59;4.00;;;2.45;;
86522;SDS011;77164;48.402;10.596;2024-03-23T02:11:27;3.85;;;2.97;;
86522;SDS011;77164;48.402;10.596;2024-03-23T02:13:54;3.65;;;2.13;;
86522;SDS011;77164;48.402;10.596;2024-03-23T02:16:23;4.57;;;2.20;;
86522;SDS011;77164;48.402;10.596;2024-03-23T02:18:50;4.95;;;2.38;;
86522;SDS011;77164;48.402;10.596;2024-03-23T02:21:20;4.13;;;1.85;;
86522;SDS011;77164;48.402;10.596;2024-03-23T02:23:47;4.00;;;2.22;;
86522;SDS011;77164;48.402;10.596;2024-03-23T02:26:14;3.05;;;1.88;;
86522;SDS011;77164;48.402;10.596;2024-03-23T02:28:42;3.88;;;2.17;;
86522;SDS011;77164;48.402;10.596;2024-03-23T02:31:12;4.07;;;1.92;;
86522;SDS011;77164;48.402;10.596;2024-03-23T02:33:40;4.60;;;1.58;;
86522;SDS011;77164;48.402;10.596;2024-03-23T02:36:07;3.28;;;1.83;;
86522;SDS011;77164;48.402;10.596;2024-03-23T02:38:34;3.70;;;2.30;;
86522;SDS011;77164;48.402;10.596;2024-03-23T02:41:02;4.50;;;2.03;;
86522;SDS011;77164;48.402;10.596;2024-03-23T02:43:33;2.97;;;1.80;;
86522;SDS011;77164;48.402;10.596;2024-03-23T02:46:00;2.65;;;1.88;;
86522;SDS011;77164;48.402;10.596;2024-03-23T02:48:27;3.53;;;1.90;;
86522;SDS011;77164;48.402;10.596;2024-03-23T02:50:54;4.53;;;2.17;;
86522;SDS011;77164;48.402;10.596;2024-03-23T02:53:21;3.40;;;2.05;;
86522;SDS011;77164;48.402;10.596;2024-03-23T02:55:48;3.95;;;2.28;;
86522;SDS011;77164;48.402;10.596;2024-03-23T02:58:15;4.13;;;2.40;;
86522;SDS011;77164;48.402;10.596;2024-03-23T03:00:42;2.15;;;1.63;;
86522;SDS011;77164;48.402;10.596;2024-03-23T03:03:09;5.55;;;2.00;;
86522;SDS011;77164;48.402;10.596;2024-03-23T03:05:36;5.15;;;1.90;;
86522;SDS011;77164;48.402;10.596;2024-03-23T03:08:06;4.18;;;2.35;;
86522;SDS011;77164;48.402;10.596;2024-03-23T03:10:33;3.55;;;2.08;;
86522;SDS011;77164;48.402;10.596;2024-03-23T03:15:28;6.68;;;2.35;;
86522;SDS011;77164;48.402;10.596;2024-03-23T03:17:55;4.97;;;2.17;;
86522;SDS011;77164;48.402;10.596;2024-03-23T03:20:22;3.72;;;1.73;;
86522;SDS011;77164;48.402;10.596;2024-03-23T03:22:50;4.28;;;1.95;;
86522;SDS011;77164;48.402;10.596;2024-03-23T03:25:18;6.60;;;2.17;;
86522;SDS011;77164;48.402;10.596;2024-03-23T03:27:45;5.93;;;2.10;;
86522;SDS011;77164;48.402;10.596;2024-03-23T03:30:13;5.15;;;2.30;;
86522;SDS011;77164;48.402;10.596;2024-03-23T03:32:41;4.07;;;2.38;;
86522;SDS011;77164;48.402;10.596;2024-03-23T03:35:08;3.47;;;1.95;;
86522;SDS011;77164;48.402;10.596;2024-03-23T03:37:35;5.53;;;2.30;;
86522;SDS011;77164;48.402;10.596;2024-03-23T03:40:02;4.35;;;2.30;;
86522;SDS011;77164;48.402;10.596;2024-03-23T03:42:29;4.25;;;1.98;;
86522;SDS011;77164;48.402;10.596;2024-03-23T03:44:56;5.13;;;2.60;;
86522;SDS011;77164;48.402;10.596;2024-03-23T03:47:22;3.10;;;2.22;;
86522;SDS011;77164;48.402;10.596;2024-03-23T03:49:49;5.35;;;2.88;;
86522;SDS011;77164;48.402;10.596;2024-03-23T03:52:15;5.20;;;2.42;;
86522;SDS011;77164;48.402;10.596;2024-03-23T03:54:42;6.28;;;2.42;;
86522;SDS011;77164;48.402;10.596;2024-03-23T03:57:09;4.10;;;2.17;;
86522;SDS011;77164;48.402;10.596;2024-03-23T03:59:35;3.15;;;2.20;;
86522;SDS011;77164;48.402;10.596;2024-03-23T04:02:02;3.55;;;1.75;;
86522;SDS011;77164;48.402;10.596;2024-03-23T04:04:29;4.63;;;2.50;;
86522;SDS011;77164;48.402;10.596;2024-03-23T04:07:02;3.35;;;2.47;;
86522;SDS011;77164;48.402;10.596;2024-03-23T04:09:30;5.63;;;2.45;;
86522;SDS011;77164;48.402;10.596;2024-03-23T04:11:57;4.57;;;2.47;;
86522;SDS011;77164;48.402;10.596;2024-03-23T04:14:23;3.50;;;2.10;;
86522;SDS011;77164;48.402;10.596;2024-03-23T04:16:50;3.10;;;2.20;;
86522;SDS011;77164;48.402;10.596;2024-03-23T04:19:17;6.35;;;1.98;;
86522;SDS011;77164;48.402;10.596;2024-03-23T04:21:44;6.32;;;2.70;;
86522;SDS011;77164;48.402;10.596;2024-03-23T04:24:10;3.88;;;2.28;;
86522;SDS011;77164;48.402;10.596;2024-03-23T04:26:43;4.03;;;2.00;;
86522;SDS011;77164;48.402;10.596;2024-03-23T04:29:09;5.13;;;2.65;;
86522;SDS011;77164;48.402;10.596;2024-03-23T04:31:36;4.32;;;2.47;;
86522;SDS011;77164;48.402;10.596;2024-03-23T04:34:03;4.40;;;2.22;;
86522;SDS011;77164;48.402;10.596;2024-03-23T04:36:30;4.22;;;2.00;;
86522;SDS011;77164;48.402;10.596;2024-03-23T04:38:57;3.40;;;2.15;;
86522;SDS011;77164;48.402;10.596;2024-03-23T04:41:24;6.38;;;1.90;;
86522;SDS011;77164;48.402;10.596;2024-03-23T04:43:51;3.25;;;1.80;;
86522;SDS011;77164;48.402;10.596;2024-03-23T04:46:18;4.78;;;1.40;;
86522;SDS011;77164;48.402;10.596;2024-03-23T04:48:46;2.33;;;1.52;;
86522;SDS011;77164;48.402;10.596;2024-03-23T04:51:25;3.25;;;1.67;;
86522;SDS011;77164;48.402;10.596;2024-03-23T04:53:52;2.28;;;1.25;;
86522;SDS011;77164;48.402;10.596;2024-03-23T04:56:18;8.05;;;1.50;;
86522;SDS011;77164;48.402;10.596;2024-03-23T04:58:45;2.08;;;1.05;;
86522;SDS011;77164;48.402;10.596;2024-03-23T05:01:12;2.70;;;1.52;;
86522;SDS011;77164;48.402;10.596;2024-03-23T05:03:39;1.55;;;1.05;;
86522;SDS011;77164;48.402;10.596;2024-03-23T05:06:05;3.75;;;1.83;;
86522;SDS011;77164;48.402;10.596;2024-03-23T05:08:32;1.77;;;1.10;;
86522;SDS011;77164;48.402;10.596;2024-03-23T05:10:59;2.83;;;1.33;;
86522;SDS011;77164;48.402;10.596;2024-03-23T05:13:25;3.95;;;1.30;;
86522;SDS011;77164;48.402;10.596;2024-03-23T05:15:55;5.07;;;1.52;;
86522;SDS011;77164;48.402;10.596;2024-03-23T05:18:22;4.60;;;1.92;;
86522;SDS011;77164;48.402;10.596;2024-03-23T05:20:56;3.70;;;1.60;;
86522;SDS011;77164;48.402;10.596;2024-03-23T05:23:23;4.35;;;2.03;;
86522;SDS011;77164;48.402;10.596;2024-03-23T05:25:51;4.30;;;1.77;;
86522;SDS011;77164;48.402;10.596;2024-03-23T05:28:18;2.88;;;2.03;;
86522;SDS011;77164;48.402;10.596;2024-03-23T05:30:51;2.85;;;1.30;;
86522;SDS011;77164;48.402;10.596;2024-03-23T05:33:19;2.90;;;1.58;;
86522;SDS011;77164;48.402;10.596;2024-03-23T05:35:46;3.55;;;1.50;;
86522;SDS011;77164;48.402;10.596;2024-03-23T05:38:13;2.53;;;1.50;;
86522;SDS011;77164;48.402;10.596;2024-03-23T05:40:40;4.68;;;2.08;;
86522;SDS011;77164;48.402;10.596;2024-03-23T05:43:06;3.38;;;1.63;;
86522;SDS011;77164;48.402;10.596;2024-03-23T05:45:34;2.30;;;1.60;;
86522;SDS011;77164;48.402;10.596;2024-03-23T05:48:01;5.03;;;1.90;;
86522;SDS011;77164;48.402;10.596;2024-03-23T05:50:28;4.43;;;1.45;;
86522;SDS011;77164;48.402;10.596;2024-03-23T05:52:54;3.53;;;1.92;;
86522;SDS011;77164;48.402;10.596;2024-03-23T05:55:21;3.28;;;1.67;;
86522;SDS011;77164;48.402;10.596;2024-03-23T05:57:47;3.47;;;1.33;;
86522;SDS011;77164;48.402;10.596;2024-03-23T06:00:14;3.22;;;1.73;;
86522;SDS011;77164;48.402;10.596;2024-03-23T06:02:44;1.90;;;1.30;;
86522;SDS011;77164;48.402;10.596;2024-03-23T06:05:11;4.45;;;1.50;;
86522;SDS011;77164;48.402;10.596;2024-03-23T06:07:38;2.88;;;1.35;;
86522;SDS011;77164;48.402;10.596;2024-03-23T06:10:04;3.90;;;1.52;;
86522;SDS011;77164;48.402;10.596;2024-03-23T06:12:31;2.33;;;1.35;;
86522;SDS011;77164;48.402;10.596;2024-03-23T06:14:58;3.25;;;1.52;;
86522;SDS011;77164;48.402;10.596;2024-03-23T06:17:24;3.28;;;1.40;;
86522;SDS011;77164;48.402;10.596;2024-03-23T06:19:51;2.03;;;1.15;;
86522;SDS011;77164;48.402;10.596;2024-03-23T06:22:17;9.52;;;1.73;;
86522;SDS011;77164;48.402;10.596;2024-03-23T06:24:44;3.58;;;1.80;;
86522;SDS011;77164;48.402;10.596;2024-03-23T06:27:10;3.17;;;1.50;;
86522;SDS011;77164;48.402;10.596;2024-03-23T06:29:37;1.88;;;1.10;;
86522;SDS011;77164;48.402;10.596;2024-03-23T06:32:04;2.35;;;1.48;;
86522;SDS011;77164;48.402;10.596;2024-03-23T06:34:31;3.65;;;1.63;;
86522;SDS011;77164;48.402;10.596;2024-03-23T06:36:58;8.05;;;1.23;;
86522;SDS011;77164;48.402;10.596;2024-03-23T06:39:24;5.78;;;1.70;;
86522;SDS011;77164;48.402;10.596;2024-03-23T06:41:51;4.03;;;1.40;;
86522;SDS011;77164;48.402;10.596;2024-03-23T06:44:19;3.42;;;1.42;;
86522;SDS011;77164;48.402;10.596;2024-03-23T06:46:46;3.10;;;2.10;;
86522;SDS011;77164;48.402;10.596;2024-03-23T06:49:14;2.85;;;1.73;;
86522;SDS011;77164;48.402;10.596;2024-03-23T06:51:41;2.38;;;1.35;;
86522;SDS011;77164;48.402;10.596;2024-03-23T06:54:07;2.53;;;1.13;;
86522;SDS011;77164;48.402;10.596;2024-03-23T06:56:34;4.93;;;1.45;;
86522;SDS011;77164;48.402;10.596;2024-03-23T06:59:01;3.33;;;1.50;;
86522;SDS011;77164;48.402;10.596;2024-03-23T07:01:27;2.08;;;1.30;;
86522;SDS011;77164;48.402;10.596;2024-03-23T07:03:56;3.60;;;1.40;;
86522;SDS011;77164;48.402;10.596;2024-03-23T07:06:23;2.70;;;1.42;;
86522;SDS011;77164;48.402;10.596;2024-03-23T07:11:53;5.97;;;1.55;;
86522;SDS011;77164;48.402;10.596;2024-03-23T07:14:23;3.95;;;1.75;;
86522;SDS011;77164;48.402;10.596;2024-03-23T07:16:50;4.68;;;2.03;;
86522;SDS011;77164;48.402;10.596;2024-03-23T07:19:17;3.50;;;1.60;;
86522;SDS011;77164;48.402;10.596;2024-03-23T07:21:44;1.95;;;1.23;;
86522;SDS011;77164;48.402;10.596;2024-03-23T07:24:11;2.05;;;1.23;;
86522;SDS011;77164;48.402;10.596;2024-03-23T07:26:38;3.28;;;1.67;;
86522;SDS011;77164;48.402;10.596;2024-03-23T07:29:06;2.55;;;1.40;;
86522;SDS011;77164;48.402;10.596;2024-03-23T07:31:33;3.78;;;1.80;;
86522;SDS011;77164;48.402;10.596;2024-03-23T07:33:59;3.75;;;1.70;;
86522;SDS011;77164;48.402;10.596;2024-03-23T07:36:26;2.75;;;1.75;;
86522;SDS011;77164;48.402;10.596;2024-03-23T07:38:53;4.90;;;1.50;;
86522;SDS011;77164;48.402;10.596;2024-03-23T07:41:20;3.25;;;1.40;;
86522;SDS011;77164;48.402;10.596;2024-03-23T07:43:47;3.40;;;1.73;;
86522;SDS011;77164;48.402;10.596;2024-03-23T07:46:20;4.10;;;1.80;;
86522;SDS011;77164;48.402;10.596;2024-03-23T07:48:54;3.15;;;1.55;;
86522;SDS011;77164;48.402;10.596;2024-03-23T07:51:26;2.72;;;1.38;;
86522;SDS011;77164;48.402;10.596;2024-03-23T07:53:54;2.75;;;1.33;;
86522;SDS011;77164;48.402;10.596;2024-03-23T07:56:20;2.05;;;1.30;;
86522;SDS011;77164;48.402;10.596;2024-03-23T07:58:48;3.42;;;1.90;;
86522;SDS011;77164;48.402;10.596;2024-03-23T08:01:16;3.58;;;1.80;;
86522;SDS011;77164;48.402;10.596;2024-03-23T08:03:45;4.07;;;2.03;;
86522;SDS011;77164;48.402;10.596;2024-03-23T08:06:13;2.28;;;1.30;;
86522;SDS011;77164;48.402;10.596;2024-03-23T08:08:44;3.35;;;1.83;;
86522;SDS011;77164;48.402;10.596;2024-03-23T08:11:11;4.32;;;2.05;;
86522;SDS011;77164;48.402;10.596;2024-03-23T08:13:40;3.47;;;1.63;;
86522;SDS011;77164;48.402;10.596;2024-03-23T08:16:07;2.80;;;1.60;;
86522;SDS011;77164;48.402;10.596;2024-03-23T08:18:34;7.78;;;2.92;;
86522;SDS011;77164;48.402;10.596;2024-03-23T08:21:02;2.92;;;1.63;;
86522;SDS011;77164;48.402;10.596;2024-03-23T08:23:31;3.88;;;1.35;;
86522;SDS011;77164;48.402;10.596;2024-03-23T08:26:09;6.45;;;2.17;;
86522;SDS011;77164;48.402;10.596;2024-03-23T08:28:37;1.98;;;1.13;;
86522;SDS011;77164;48.402;10.596;2024-03-23T08:31:08;3.92;;;1.50;;
86522;SDS011;77164;48.402;10.596;2024-03-23T08:33:35;3.63;;;1.33;;
86522;SDS011;77164;48.402;10.596;2024-03-23T08:36:05;2.40;;;1.08;;
86522;SDS011;77164;48.402;10.596;2024-03-23T08:38:46;1.65;;;1.00;;
86522;SDS011;77164;48.402;10.596;2024-03-23T08:43:51;1.48;;;0.65;;
86522;SDS011;77164;48.402;10.596;2024-03-23T08:46:17;1.23;;;0.70;;
86522;SDS011;77164;48.402;10.596;2024-03-23T08:48:46;1.10;;;0.85;;
86522;SDS011;77164;48.402;10.596;2024-03-23T08:51:14;0.85;;;0.30;;
86522;SDS011;77164;48.402;10.596;2024-03-23T08:53:42;1.92;;;0.68;;
86522;SDS011;77164;48.402;10.596;2024-03-23T08:56:09;1.38;;;0.40;;
86522;SDS011;77164;48.402;10.596;2024-03-23T08:58:37;1.20;;;0.70;;
86522;SDS011;77164;48.402;10.596;2024-03-23T09:01:11;1.35;;;0.50;;
86522;SDS011;77164;48.402;10.596;2024-03-23T09:03:41;0.75;;;0.50;;
86522;SDS011;77164;48.402;10.596;2024-03-23T09:08:38;0.60;;;0.40;;
86522;SDS011;77164;48.402;10.596;2024-03-23T09:11:06;0.30;;;0.28;;
86522;SDS011;77164;48.402;10.596;2024-03-23T09:13:37;0.82;;;0.30;;
86522;SDS011;77164;48.402;10.596;2024-03-23T09:16:05;1.00;;;0.40;;
86522;SDS011;77164;48.402;10.596;2024-03-23T09:18:33;0.55;;;0.43;;
86522;SDS011;77164;48.402;10.596;2024-03-23T09:21:01;0.22;;;0.20;;
86522;SDS011;77164;48.402;10.596;2024-03-23T09:23:29;0.22;;;0.22;;
86522;SDS011;77164;48.402;10.596;2024-03-23T09:25:55;0.30;;;0.20;;
86522;SDS011;77164;48.402;10.596;2024-03-23T09:28:22;0.10;;;0.03;;
86522;SDS011;77164;48.402;10.596;2024-03-23T09:30:52;0.35;;;0.22;;
86522;SDS011;77164;48.402;10.596;2024-03-23T09:33:19;0.28;;;0.25;;
86522;SDS011;77164;48.402;10.596;2024-03-23T09:35:45;0.25;;;0.15;;
86522;SDS011;77164;48.402;10.596;2024-03-23T09:38:26;0.60;;;0.20;;
86522;SDS011;77164;48.402;10.596;2024-03-23T09:41:34;0.20;;;0.20;;
86522;SDS011;77164;48.402;10.596;2024-03-23T09:44:01;0.22;;;0.17;;
86522;SDS011;77164;48.402;10.596;2024-03-23T09:46:28;0.57;;;0.38;;
86522;SDS011;77164;48.402;10.596;2024-03-23T09:48:55;0.20;;;0.20;;
86522;SDS011;77164;48.402;10.596;2024-03-23T09:51:23;0.10;;;0.10;;
86522;SDS011;77164;48.402;10.596;2024-03-23T09:53:49;0.43;;;0.20;;
86522;SDS011;77164;48.402;10.596;2024-03-23T09:56:20;0.52;;;0.13;;
86522;SDS011;77164;48.402;10.596;2024-03-23T09:59:02;0.57;;;0.30;;
86522;SDS011;77164;48.402;10.596;2024-03-23T10:01:29;0.10;;;0.10;;
86522;SDS011;77164;48.402;10.596;2024-03-23T10:03:56;0.35;;;0.20;;
86522;SDS011;77164;48.402;10.596;2024-03-23T10:06:23;0.82;;;0.30;;
86522;SDS011;77164;48.402;10.596;2024-03-23T10:08:51;1.00;;;0.30;;
86522;SDS011;77164;48.402;10.596;2024-03-23T10:11:25;1.08;;;0.30;;
86522;SDS011;77164;48.402;10.596;2024-03-23T10:13:53;2.13;;;0.60;;
86522;SDS011;77164;48.402;10.596;2024-03-23T10:18:52;0.47;;;0.30;;
86522;SDS011;77164;48.402;10.596;2024-03-23T10:21:22;0.82;;;0.50;;
86522;SDS011;77164;48.402;10.596;2024-03-23T10:23:49;2.25;;;0.32;;
86522;SDS011;77164;48.402;10.596;2024-03-23T10:26:29;0.55;;;0.30;;
86522;SDS011;77164;48.402;10.596;2024-03-23T10:29:03;3.95;;;0.90;;
86522;SDS011;77164;48.402;10.596;2024-03-23T10:31:38;3.25;;;1.90;;
86522;SDS011;77164;48.402;10.596;2024-03-23T10:36:47;1.52;;;0.70;;
86522;SDS011;77164;48.402;10.596;2024-03-23T10:39:14;2.85;;;0.80;;
86522;SDS011;77164;48.402;10.596;2024-03-23T10:41:52;1.45;;;0.60;;
86522;SDS011;77164;48.402;10.596;2024-03-23T10:44:22;1.27;;;0.57;;
86522;SDS011;77164;48.402;10.596;2024-03-23T10:46:55;4.53;;;0.70;;
86522;SDS011;77164;48.402;10.596;2024-03-23T10:49:25;1.95;;;0.80;;
86522;SDS011;77164;48.402;10.596;2024-03-23T10:51:59;1.52;;;0.73;;
86522;SDS011;77164;48.402;10.596;2024-03-23T10:54:27;2.67;;;0.60;;
86522;SDS011;77164;48.402;10.596;2024-03-23T10:57:01;3.78;;;0.80;;
86522;SDS011;77164;48.402;10.596;2024-03-23T10:59:42;3.63;;;0.93;;
86522;SDS011;77164;48.402;10.596;2024-03-23T11:04:58;2.53;;;0.60;;
86522;SDS011;77164;48.402;10.596;2024-03-23T11:07:31;1.20;;;0.68;;
86522;SDS011;77164;48.402;10.596;2024-03-23T11:09:59;2.75;;;0.98;;
86522;SDS011;77164;48.402;10.596;2024-03-23T11:12:27;3.78;;;0.77;;
86522;SDS011;77164;48.402;10.596;2024-03-23T11:15:04;3.83;;;1.17;;
86522;SDS011;77164;48.402;10.596;2024-03-23T11:17:36;6.95;;;1.30;;
86522;SDS011;77164;48.402;10.596;2024-03-23T11:20:03;5.32;;;1.77;;
86522;SDS011;77164;48.402;10.596;2024-03-23T11:25:17;7.35;;;1.20;;
86522;SDS011;77164;48.402;10.596;2024-03-23T11:27:50;3.85;;;1.00;;
86522;SDS011;77164;48.402;10.596;2024-03-23T11:33:12;3.53;;;1.02;;
86522;SDS011;77164;48.402;10.596;2024-03-23T11:35:43;3.15;;;1.00;;
86522;SDS011;77164;48.402;10.596;2024-03-23T11:38:11;2.15;;;1.00;;
86522;SDS011;77164;48.402;10.596;2024-03-23T11:40:46;1.85;;;0.98;;
86522;SDS011;77164;48.402;10.596;2024-03-23T11:43:15;3.97;;;0.95;;
86522;SDS011;77164;48.402;10.596;2024-03-23T11:45:46;2.97;;;0.80;;
86522;SDS011;77164;48.402;10.596;2024-03-23T11:48:18;6.80;;;1.02;;
86522;SDS011;77164;48.402;10.596;2024-03-23T11:50:46;2.47;;;1.20;;
86522;SDS011;77164;48.402;10.596;2024-03-23T11:53:21;2.80;;;1.15;;
86522;SDS011;77164;48.402;10.596;2024-03-23T11:55:53;3.67;;;1.15;;
86522;SDS011;77164;48.402;10.596;2024-03-23T12:01:02;3.95;;;1.55;;
86522;SDS011;77164;48.402;10.596;2024-03-23T12:03:45;1.90;;;1.15;;
86522;SDS011;77164;48.402;10.596;2024-03-23T12:06:21;3.47;;;1.17;;
86522;SDS011;77164;48.402;10.596;2024-03-23T12:08:59;3.42;;;0.98;;
86522;SDS011;77164;48.402;10.596;2024-03-23T12:11:39;1.88;;;1.17;;
86522;SDS011;77164;48.402;10.596;2024-03-23T12:14:23;6.00;;;1.60;;
86522;SDS011;77164;48.402;10.596;2024-03-23T12:17:10;2.78;;;1.00;;
86522;SDS011;77164;48.402;10.596;2024-03-23T12:19:57;2.70;;;1.10;;
86522;SDS011;77164;48.402;10.596;2024-03-23T12:22:25;3.70;;;0.90;;
86522;SDS011;77164;48.402;10.596;2024-03-23T12:24:52;4.57;;;1.42;;
86522;SDS011;77164;48.402;10.596;2024-03-23T12:27:22;6.82;;;1.13;;
86522;SDS011;77164;48.402;10.596;2024-03-23T12:29:50;2.08;;;1.00;;
86522;SDS011;77164;48.402;10.596;2024-03-23T12:32:23;5.45;;;1.10;;
86522;SDS011;77164;48.402;10.596;2024-03-23T12:34:50;1.67;;;1.08;;
86522;SDS011;77164;48.402;10.596;2024-03-23T12:37:26;5.50;;;1.70;;
86522;SDS011;77164;48.402;10.596;2024-03-23T12:39:53;3.83;;;0.90;;
86522;SDS011;77164;48.402;10.596;2024-03-23T12:42:20;7.65;;;2.42;;
86522;SDS011;77164;48.402;10.596;2024-03-23T12:44:46;3.63;;;1.20;;
86522;SDS011;77164;48.402;10.596;2024-03-23T12:47:19;2.10;;;1.13;;
86522;SDS011;77164;48.402;10.596;2024-03-23T12:49:47;2.30;;;0.98;;
86522;SDS011;77164;48.402;10.596;2024-03-23T12:52:16;1.40;;;0.65;;
86522;SDS011;77164;48.402;10.596;2024-03-23T12:54:47;11.38;;;1.50;;
86522;SDS011;77164;48.402;10.596;2024-03-23T12:57:19;2.10;;;1.30;;
86522;SDS011;77164;48.402;10.596;2024-03-23T12:59:46;1.95;;;0.65;;
86522;SDS011;77164;48.402;10.596;2024-03-23T13:02:17;0.55;;;0.40;;
86522;SDS011;77164;48.402;10.596;2024-03-23T13:04:46;2.00;;;0.60;;
86522;SDS011;77164;48.402;10.596;2024-03-23T13:07:20;1.80;;;0.60;;
86522;SDS011;77164;48.402;10.596;2024-03-23T13:09:50;0.98;;;0.43;;
86522;SDS011;77164;48.402;10.596;2024-03-23T13:12:21;1.13;;;0.73;;
86522;SDS011;77164;48.402;10.596;2024-03-23T13:14:49;4.15;;;0.60;;
86522;SDS011;77164;48.402;10.596;2024-03-23T13:17:15;1.67;;;0.73;;
86522;SDS011;77164;48.402;10.596;2024-03-23T13:19:42;1.08;;;0.68;;
86522;SDS011;77164;48.402;10.596;2024-03-23T13:22:09;2.90;;;0.77;;
86522;SDS011;77164;48.402;10.596;2024-03-23T13:24:37;1.65;;;0.77;;
86522;SDS011;77164;48.402;10.596;2024-03-23T13:27:04;2.63;;;0.68;;
86522;SDS011;77164;48.402;10.596;2024-03-23T13:29:33;1.95;;;0.80;;
86522;SDS011;77164;48.402;10.596;2024-03-23T13:32:01;3.55;;;0.90;;
86522;SDS011;77164;48.402;10.596;2024-03-23T13:34:28;0.80;;;0.40;;
86522;SDS011;77164;48.402;10.596;2024-03-23T13:36:55;3.50;;;0.98;;
86522;SDS011;77164;48.402;10.596;2024-03-23T13:39:25;1.63;;;0.57;;
86522;SDS011;77164;48.402;10.596;2024-03-23T13:41:57;2.50;;;0.50;;
86522;SDS011;77164;48.402;10.596;2024-03-23T13:44:24;5.43;;;1.17;;
86522;SDS011;77164;48.402;10.596;2024-03-23T13:46:51;0.75;;;0.30;;
86522;SDS011;77164;48.402;10.596;2024-03-23T13:51:56;0.80;;;0.47;;
86522;SDS011;77164;48.402;10.596;2024-03-23T13:54:27;1.38;;;0.75;;
86522;SDS011;77164;48.402;10.596;2024-03-23T13:56:54;3.25;;;0.70;;
86522;SDS011;77164;48.402;10.596;2024-03-23T13:59:21;5.32;;;0.60;;
86522;SDS011;77164;48.402;10.596;2024-03-23T14:01:51;1.95;;;0.50;;
86522;SDS011;77164;48.402;10.596;2024-03-23T14:04:21;4.05;;;0.60;;
86522;SDS011;77164;48.402;10.596;2024-03-23T14:06:49;3.03;;;1.00;;
86522;SDS011;77164;48.402;10.596;2024-03-23T14:09:16;1.80;;;0.68;;
86522;SDS011;77164;48.402;10.596;2024-03-23T14:11:46;5.25;;;0.60;;
86522;SDS011;77164;48.402;10.596;2024-03-23T14:14:13;2.10;;;1.10;;
86522;SDS011;77164;48.402;10.596;2024-03-23T14:16:43;3.63;;;1.13;;
86522;SDS011;77164;48.402;10.596;2024-03-23T14:19:10;9.38;;;1.27;;
86522;SDS011;77164;48.402;10.596;2024-03-23T14:21:37;4.30;;;1.30;;
86522;SDS011;77164;48.402;10.596;2024-03-23T14:24:04;2.78;;;1.17;;
86522;SDS011;77164;48.402;10.596;2024-03-23T14:26:43;7.13;;;2.17;;
86522;SDS011;77164;48.402;10.596;2024-03-23T14:29:10;3.08;;;1.27;;
86522;SDS011;77164;48.402;10.596;2024-03-23T14:31:37;3.95;;;0.95;;
86522;SDS011;77164;48.402;10.596;2024-03-23T14:34:04;1.75;;;1.00;;
86522;SDS011;77164;48.402;10.596;2024-03-23T14:36:30;5.32;;;1.38;;
86522;SDS011;77164;48.402;10.596;2024-03-23T14:38:57;4.60;;;1.17;;
86522;SDS011;77164;48.402;10.596;2024-03-23T14:41:24;2.53;;;1.02;;
86522;SDS011;77164;48.402;10.596;2024-03-23T14:43:51;4.18;;;1.17;;
86522;SDS011;77164;48.402;10.596;2024-03-23T14:46:26;2.97;;;1.02;;
86522;SDS011;77164;48.402;10.596;2024-03-23T14:49:14;4.78;;;0.98;;
86522;SDS011;77164;48.402;10.596;2024-03-23T14:52:04;2.60;;;1.20;;
86522;SDS011;77164;48.402;10.596;2024-03-23T14:54:41;5.95;;;0.88;;
86522;SDS011;77164;48.402;10.596;2024-03-23T14:57:26;1.20;;;0.60;;
86522;SDS011;77164;48.402;10.596;2024-03-23T15:02:47;4.63;;;1.17;;
86522;SDS011;77164;48.402;10.596;2024-03-23T15:25:54;1.52;;;0.77;;
86522;SDS011;77164;48.402;10.596;2024-03-23T15:28:31;2.90;;;0.50;;
86522;SDS011;77164;48.402;10.596;2024-03-23T15:31:09;1.95;;;1.10;;
86522;SDS011;77164;48.402;10.596;2024-03-23T15:33:36;4.20;;;1.10;;
86522;SDS011;77164;48.402;10.596;2024-03-23T15:45:56;4.20;;;1.08;;
86522;SDS011;77164;48.402;10.596;2024-03-23T15:48:40;1.65;;;0.60;;
86522;SDS011;77164;48.402;10.596;2024-03-23T15:51:18;2.65;;;0.70;;
86522;SDS011;77164;48.402;10.596;2024-03-23T15:53:44;2.13;;;1.05;;
86522;SDS011;77164;48.402;10.596;2024-03-23T15:56:11;2.08;;;0.52;;
86522;SDS011;77164;48.402;10.596;2024-03-23T15:58:38;2.38;;;0.70;;
86522;SDS011;77164;48.402;10.596;2024-03-23T16:01:08;3.00;;;0.70;;
86522;SDS011;77164;48.402;10.596;2024-03-23T16:03:37;2.90;;;0.90;;
86522;SDS011;77164;48.402;10.596;2024-03-23T16:06:05;1.90;;;0.68;;
86522;SDS011;77164;48.402;10.596;2024-03-23T16:08:35;4.05;;;0.68;;
86522;SDS011;77164;48.402;10.596;2024-03-23T16:11:02;3.13;;;0.63;;
86522;SDS011;77164;48.402;10.596;2024-03-23T16:13:30;2.08;;;0.63;;
86522;SDS011;77164;48.402;10.596;2024-03-23T16:15:58;3.53;;;1.08;;
86522;SDS011;77164;48.402;10.596;2024-03-23T16:18:29;1.15;;;0.52;;
86522;SDS011;77164;48.402;10.596;2024-03-23T16:23:24;0.88;;;0.38;;
86522;SDS011;77164;48.402;10.596;2024-03-23T16:25:58;1.13;;;0.30;;
86522;SDS011;77164;48.402;10.596;2024-03-23T16:28:25;4.30;;;0.75;;
86522;SDS011;77164;48.402;10.596;2024-03-23T16:30:59;2.00;;;0.70;;
86522;SDS011;77164;48.402;10.596;2024-03-23T16:33:34;1.42;;;0.43;;
86522;SDS011;77164;48.402;10.596;2024-03-23T16:36:06;3.22;;;0.57;;
86522;SDS011;77164;48.402;10.596;2024-03-23T16:39:03;0.40;;;0.30;;
86522;SDS011;77164;48.402;10.596;2024-03-23T16:41:44;2.78;;;0.40;;
86522;SDS011;77164;48.402;10.596;2024-03-23T16:50:03;0.68;;;0.25;;